Jade — 9HVS8 — position and weather

sailwx.info

Track history (hours):
 
Tides and Currents Weather Stations Pressure Air Temp Water Temp Dewpoint Dewpoint Depression Visibility Wind Speed Wind Dir Waves Ship Positions

Jade

Last reported at 2016-May-03 16:33 UTC. Time now 2016-May-04 23:07 UTC.
Position N 32°44' E 032°53'.

Length 176 m; draft 10 m.

Type: Ship (hazmat cat A). MMSI: 256491000.

Date/timePositionNaut miles runAvg speedWind from/ knotsBaromVisibWave heightAir tempDewpointWater temp
2016-May-03 16:33N 32°44' E 032°53'1414.1
2016-May-03 15:33N 32°35' E 033°06'1313.5
2016-May-03 14:33N 32°27' E 033°19'1312.7
2016-May-03 13:33N 32°20' E 033°32'  
2016-Apr-28 17:27N 33°33' E 032°41'1112.1
2016-Apr-28 16:33N 33°38' E 032°29'1211.9
2016-Apr-28 15:31N 33°44' E 032°16'1412.0
2016-Apr-28 14:22N 33°50' E 032°02'1412.6
2016-Apr-28 13:13N 33°57' E 031°46'35212.7
2016-Apr-27 09:33N 37°23' E 025°55'251 6.7
2016-Apr-25 20:13N 40°54' E 028°50'7 1.6
2016-Apr-25 15:26N 40°58' E 028°58'225 8.3
2016-Apr-24 12:12N 43°13' E 033°01'7312.9
2016-Apr-24 06:33N 43°53' E 034°25'1313.3
2016-Apr-24 05:33N 43°60' E 034°40'1313.5
2016-Apr-24 04:34N 44°07' E 034°56'1413.5
2016-Apr-24 03:34N 44°15' E 035°11'1413.7
2016-Apr-24 02:33N 44°22' E 035°28'1414.1
2016-Apr-24 01:33N 44°30' E 035°44'1414.3
2016-Apr-24 00:33N 44°37' E 036°01'1913.7
2016-Apr-23 23:09N 44°48' E 036°24'812.6
2016-Apr-23 22:29N 44°56' E 036°27'9 9.2
2016-Apr-23 21:32N 45°04' E 036°32'2 1.8
2016-Apr-23 20:26N 45°05' E 036°35'0 0.1
2016-Apr-23 19:32N 45°05' E 036°35'0 0.0
2016-Apr-23 18:17N 45°05' E 036°35'0 0.0
2016-Apr-23 17:29N 45°05' E 036°35'  
Track history (hours):
 
Tides and Currents Weather Stations Pressure Air Temp Water Temp Dewpoint Dewpoint Depression Visibility Wind Speed Wind Dir Waves Ship Positions

Jade

Last reported at 2016-May-03 16:33 UTC. Time now 2016-May-04 23:07 UTC.
Position N 32°44' E 032°53'.

Length 176 m; draft 10 m.

Type: Ship (hazmat cat A). MMSI: 256491000.

Date/timePositionNaut miles runAvg speedWind from/ knotsBaromVisibWave heightAir tempDewpointWater temp
2016-May-03 16:33N 32°44' E 032°53'1414.1
2016-May-03 15:33N 32°35' E 033°06'1313.5
2016-May-03 14:33N 32°27' E 033°19'1312.7
2016-May-03 13:33N 32°20' E 033°32'  
2016-Apr-28 17:27N 33°33' E 032°41'1112.1
2016-Apr-28 16:33N 33°38' E 032°29'1211.9
2016-Apr-28 15:31N 33°44' E 032°16'1412.0
2016-Apr-28 14:22N 33°50' E 032°02'1412.6
2016-Apr-28 13:13N 33°57' E 031°46'35212.7
2016-Apr-27 09:33N 37°23' E 025°55'251 6.7
2016-Apr-25 20:13N 40°54' E 028°50'7 1.6
2016-Apr-25 15:26N 40°58' E 028°58'225 8.3
2016-Apr-24 12:12N 43°13' E 033°01'7312.9
2016-Apr-24 06:33N 43°53' E 034°25'1313.3
2016-Apr-24 05:33N 43°60' E 034°40'1313.5
2016-Apr-24 04:34N 44°07' E 034°56'1413.5
2016-Apr-24 03:34N 44°15' E 035°11'1413.7
2016-Apr-24 02:33N 44°22' E 035°28'1414.1
2016-Apr-24 01:33N 44°30' E 035°44'1414.3
2016-Apr-24 00:33N 44°37' E 036°01'1913.7
2016-Apr-23 23:09N 44°48' E 036°24'812.6
2016-Apr-23 22:29N 44°56' E 036°27'9 9.2
2016-Apr-23 21:32N 45°04' E 036°32'2 1.8
2016-Apr-23 20:26N 45°05' E 036°35'0 0.1
2016-Apr-23 19:32N 45°05' E 036°35'0 0.0
2016-Apr-23 18:17N 45°05' E 036°35'0 0.0
2016-Apr-23 17:29N 45°05' E 036°35'  

Dump ship's entire track history